sensor_id;sensor_type;location;lat;lon;timestamp;temperature;humidity
12845;DHT22;6489;48.508;9.206;2023-02-15T00:02:50;19.80;99.90
12845;DHT22;6489;48.508;9.206;2023-02-15T00:06:12;19.80;99.90
12845;DHT22;6489;48.508;9.206;2023-02-15T00:09:33;19.80;99.90
12845;DHT22;6489;48.508;9.206;2023-02-15T00:12:55;19.80;99.90
12845;DHT22;6489;48.508;9.206;2023-02-15T00:16:17;19.80;99.90
12845;DHT22;6489;48.508;9.206;2023-02-15T00:19:40;19.70;99.90
12845;DHT22;6489;48.508;9.206;2023-02-15T00:23:02;19.80;99.90
12845;DHT22;6489;48.508;9.206;2023-02-15T00:26:24;19.70;99.90
12845;DHT22;6489;48.508;9.206;2023-02-15T00:29:47;19.70;99.90
12845;DHT22;6489;48.508;9.206;2023-02-15T00:33:09;19.70;99.90
12845;DHT22;6489;48.508;9.206;2023-02-15T00:36:32;19.70;99.90
12845;DHT22;6489;48.508;9.206;2023-02-15T00:39:54;19.70;99.90
12845;DHT22;6489;48.508;9.206;2023-02-15T00:43:16;19.70;99.90
12845;DHT22;6489;48.508;9.206;2023-02-15T00:46:38;19.70;99.90
12845;DHT22;6489;48.508;9.206;2023-02-15T00:50:00;19.70;99.90
12845;DHT22;6489;48.508;9.206;2023-02-15T00:53:26;19.70;99.90
12845;DHT22;6489;48.508;9.206;2023-02-15T00:56:48;19.70;99.90
12845;DHT22;6489;48.508;9.206;2023-02-15T01:00:11;19.70;99.90
12845;DHT22;6489;48.508;9.206;2023-02-15T01:03:33;19.70;99.90
12845;DHT22;6489;48.508;9.206;2023-02-15T01:06:55;19.70;99.90
12845;DHT22;6489;48.508;9.206;2023-02-15T01:10:19;19.70;99.90
12845;DHT22;6489;48.508;9.206;2023-02-15T01:13:41;19.70;99.90
12845;DHT22;6489;48.508;9.206;2023-02-15T01:17:03;19.70;99.90
12845;DHT22;6489;48.508;9.206;2023-02-15T01:20:27;19.70;99.90
12845;DHT22;6489;48.508;9.206;2023-02-15T01:23:49;19.70;99.90
12845;DHT22;6489;48.508;9.206;2023-02-15T01:27:12;19.70;99.90
12845;DHT22;6489;48.508;9.206;2023-02-15T01:30:37;19.70;99.90
12845;DHT22;6489;48.508;9.206;2023-02-15T01:33:59;19.70;99.90
12845;DHT22;6489;48.508;9.206;2023-02-15T01:37:21;19.70;99.90
12845;DHT22;6489;48.508;9.206;2023-02-15T01:40:42;19.70;99.90
12845;DHT22;6489;48.508;9.206;2023-02-15T01:48:04;19.60;99.90
12845;DHT22;6489;48.508;9.206;2023-02-15T01:51:29;19.70;99.90
12845;DHT22;6489;48.508;9.206;2023-02-15T01:54:52;19.70;99.90
12845;DHT22;6489;48.508;9.206;2023-02-15T01:58:14;19.70;99.90
12845;DHT22;6489;48.508;9.206;2023-02-15T02:01:37;19.70;99.90
12845;DHT22;6489;48.508;9.206;2023-02-15T02:05:02;19.60;99.90
12845;DHT22;6489;48.508;9.206;2023-02-15T02:08:26;19.60;99.90
12845;DHT22;6489;48.508;9.206;2023-02-15T02:11:49;19.60;99.90
12845;DHT22;6489;48.508;9.206;2023-02-15T02:15:12;19.60;99.90
12845;DHT22;6489;48.508;9.206;2023-02-15T02:18:44;19.50;99.90
12845;DHT22;6489;48.508;9.206;2023-02-15T02:34:13;19.50;99.90
12845;DHT22;6489;48.508;9.206;2023-02-15T02:37:45;19.50;99.90
12845;DHT22;6489;48.508;9.206;2023-02-15T02:41:16;19.60;99.90
12845;DHT22;6489;48.508;9.206;2023-02-15T02:44:43;19.60;99.90
12845;DHT22;6489;48.508;9.206;2023-02-15T02:48:09;19.60;99.90
12845;DHT22;6489;48.508;9.206;2023-02-15T02:51:33;19.60;99.90
12845;DHT22;6489;48.508;9.206;2023-02-15T02:54:55;19.60;99.90
12845;DHT22;6489;48.508;9.206;2023-02-15T02:58:21;19.60;99.90
12845;DHT22;6489;48.508;9.206;2023-02-15T03:01:48;19.60;99.90
12845;DHT22;6489;48.508;9.206;2023-02-15T03:05:14;19.60;99.90
12845;DHT22;6489;48.508;9.206;2023-02-15T03:08:42;19.60;99.90
12845;DHT22;6489;48.508;9.206;2023-02-15T03:12:06;19.60;99.90
12845;DHT22;6489;48.508;9.206;2023-02-15T03:15:31;19.60;99.90
12845;DHT22;6489;48.508;9.206;2023-02-15T03:19:10;19.60;99.90
12845;DHT22;6489;48.508;9.206;2023-02-15T03:22:36;19.60;99.90
12845;DHT22;6489;48.508;9.206;2023-02-15T03:26:03;19.60;99.90
12845;DHT22;6489;48.508;9.206;2023-02-15T03:29:27;19.60;99.90
12845;DHT22;6489;48.508;9.206;2023-02-15T03:32:50;19.50;99.90
12845;DHT22;6489;48.508;9.206;2023-02-15T03:36:18;19.60;99.90
12845;DHT22;6489;48.508;9.206;2023-02-15T03:39:45;19.50;99.90
12845;DHT22;6489;48.508;9.206;2023-02-15T03:43:16;19.50;99.90
12845;DHT22;6489;48.508;9.206;2023-02-15T03:46:42;19.50;99.90
12845;DHT22;6489;48.508;9.206;2023-02-15T03:50:08;19.50;99.90
12845;DHT22;6489;48.508;9.206;2023-02-15T03:53:46;19.50;99.90
12845;DHT22;6489;48.508;9.206;2023-02-15T03:57:13;19.50;99.90
12845;DHT22;6489;48.508;9.206;2023-02-15T04:00:58;19.50;99.90
12845;DHT22;6489;48.508;9.206;2023-02-15T04:04:39;19.50;99.90
12845;DHT22;6489;48.508;9.206;2023-02-15T04:08:03;19.50;99.90
12845;DHT22;6489;48.508;9.206;2023-02-15T04:11:25;19.50;99.90
12845;DHT22;6489;48.508;9.206;2023-02-15T04:14:46;19.50;99.90
12845;DHT22;6489;48.508;9.206;2023-02-15T04:18:26;19.50;99.90
12845;DHT22;6489;48.508;9.206;2023-02-15T04:22:05;19.50;99.90
12845;DHT22;6489;48.508;9.206;2023-02-15T04:25:44;19.40;99.90
12845;DHT22;6489;48.508;9.206;2023-02-15T04:29:06;19.40;99.90
12845;DHT22;6489;48.508;9.206;2023-02-15T04:32:28;19.40;99.90
12845;DHT22;6489;48.508;9.206;2023-02-15T04:35:51;19.40;99.90
12845;DHT22;6489;48.508;9.206;2023-02-15T04:39:14;19.40;99.90
12845;DHT22;6489;48.508;9.206;2023-02-15T04:42:36;19.40;99.90
12845;DHT22;6489;48.508;9.206;2023-02-15T04:45:58;19.40;99.90
12845;DHT22;6489;48.508;9.206;2023-02-15T04:49:20;19.40;99.90
12845;DHT22;6489;48.508;9.206;2023-02-15T04:52:43;19.40;99.90
12845;DHT22;6489;48.508;9.206;2023-02-15T04:56:05;19.30;99.90
12845;DHT22;6489;48.508;9.206;2023-02-15T04:59:27;19.30;99.90
12845;DHT22;6489;48.508;9.206;2023-02-15T05:02:49;19.20;99.90
12845;DHT22;6489;48.508;9.206;2023-02-15T05:06:11;19.20;99.90
12845;DHT22;6489;48.508;9.206;2023-02-15T05:09:34;19.20;99.90
12845;DHT22;6489;48.508;9.206;2023-02-15T05:16:18;19.20;99.90
12845;DHT22;6489;48.508;9.206;2023-02-15T05:19:40;19.20;99.90
12845;DHT22;6489;48.508;9.206;2023-02-15T05:23:02;19.20;99.90
12845;DHT22;6489;48.508;9.206;2023-02-15T05:26:25;19.10;99.90
12845;DHT22;6489;48.508;9.206;2023-02-15T05:30:05;19.10;99.90
12845;DHT22;6489;48.508;9.206;2023-02-15T05:33:32;19.00;99.90
12845;DHT22;6489;48.508;9.206;2023-02-15T05:36:54;19.00;99.90
12845;DHT22;6489;48.508;9.206;2023-02-15T05:40:16;19.00;99.90
12845;DHT22;6489;48.508;9.206;2023-02-15T05:43:40;19.00;99.90
12845;DHT22;6489;48.508;9.206;2023-02-15T05:47:01;19.00;99.90
12845;DHT22;6489;48.508;9.206;2023-02-15T05:50:25;19.00;99.90
12845;DHT22;6489;48.508;9.206;2023-02-15T05:53:50;19.00;99.90
12845;DHT22;6489;48.508;9.206;2023-02-15T05:57:12;19.00;99.90
12845;DHT22;6489;48.508;9.206;2023-02-15T06:00:35;19.10;99.90
12845;DHT22;6489;48.508;9.206;2023-02-15T06:03:57;19.00;99.90
12845;DHT22;6489;48.508;9.206;2023-02-15T06:07:19;19.00;99.90
12845;DHT22;6489;48.508;9.206;2023-02-15T06:10:41;19.00;99.90
12845;DHT22;6489;48.508;9.206;2023-02-15T06:14:03;19.00;99.90
12845;DHT22;6489;48.508;9.206;2023-02-15T06:17:26;19.00;99.90
12845;DHT22;6489;48.508;9.206;2023-02-15T06:20:48;19.00;99.90
12845;DHT22;6489;48.508;9.206;2023-02-15T06:24:10;19.00;99.90
12845;DHT22;6489;48.508;9.206;2023-02-15T06:27:32;18.90;99.90
12845;DHT22;6489;48.508;9.206;2023-02-15T06:30:54;18.90;99.90
12845;DHT22;6489;48.508;9.206;2023-02-15T06:34:17;18.80;99.90
12845;DHT22;6489;48.508;9.206;2023-02-15T06:37:39;18.80;99.90
12845;DHT22;6489;48.508;9.206;2023-02-15T06:41:01;18.80;99.90
12845;DHT22;6489;48.508;9.206;2023-02-15T06:44:23;18.70;99.90
12845;DHT22;6489;48.508;9.206;2023-02-15T06:47:44;18.70;99.90
12845;DHT22;6489;48.508;9.206;2023-02-15T06:51:08;18.70;99.90
12845;DHT22;6489;48.508;9.206;2023-02-15T06:54:29;18.70;99.90
12845;DHT22;6489;48.508;9.206;2023-02-15T06:57:52;18.70;99.90
12845;DHT22;6489;48.508;9.206;2023-02-15T07:01:13;18.80;99.90
12845;DHT22;6489;48.508;9.206;2023-02-15T07:04:35;18.70;99.90
12845;DHT22;6489;48.508;9.206;2023-02-15T07:07:59;18.70;99.90
12845;DHT22;6489;48.508;9.206;2023-02-15T07:11:21;18.70;99.90
12845;DHT22;6489;48.508;9.206;2023-02-15T07:15:00;18.70;99.90
12845;DHT22;6489;48.508;9.206;2023-02-15T07:18:24;18.70;99.90
12845;DHT22;6489;48.508;9.206;2023-02-15T07:21:46;18.70;99.90
12845;DHT22;6489;48.508;9.206;2023-02-15T07:25:11;18.70;99.90
12845;DHT22;6489;48.508;9.206;2023-02-15T07:28:33;18.70;99.90
12845;DHT22;6489;48.508;9.206;2023-02-15T07:31:55;18.70;99.90
12845;DHT22;6489;48.508;9.206;2023-02-15T07:35:17;18.60;99.90
12845;DHT22;6489;48.508;9.206;2023-02-15T07:38:40;18.70;99.90
12845;DHT22;6489;48.508;9.206;2023-02-15T07:42:04;18.70;99.90
12845;DHT22;6489;48.508;9.206;2023-02-15T07:45:26;18.70;99.90
12845;DHT22;6489;48.508;9.206;2023-02-15T07:48:48;18.70;99.90
12845;DHT22;6489;48.508;9.206;2023-02-15T07:55:32;18.70;99.90
12845;DHT22;6489;48.508;9.206;2023-02-15T07:58:55;18.70;99.90
12845;DHT22;6489;48.508;9.206;2023-02-15T08:02:18;18.70;99.90
12845;DHT22;6489;48.508;9.206;2023-02-15T08:05:41;18.80;99.90
12845;DHT22;6489;48.508;9.206;2023-02-15T08:09:04;18.80;99.90
12845;DHT22;6489;48.508;9.206;2023-02-15T08:12:26;19.00;99.90
12845;DHT22;6489;48.508;9.206;2023-02-15T08:15:50;19.10;99.90
12845;DHT22;6489;48.508;9.206;2023-02-15T08:19:14;19.20;99.90
12845;DHT22;6489;48.508;9.206;2023-02-15T08:22:36;19.10;99.90
12845;DHT22;6489;48.508;9.206;2023-02-15T08:25:59;19.10;99.90
12845;DHT22;6489;48.508;9.206;2023-02-15T08:29:23;19.10;99.90
12845;DHT22;6489;48.508;9.206;2023-02-15T08:32:47;19.10;99.90
12845;DHT22;6489;48.508;9.206;2023-02-15T08:36:10;19.20;99.90
12845;DHT22;6489;48.508;9.206;2023-02-15T08:39:34;19.20;99.90
12845;DHT22;6489;48.508;9.206;2023-02-15T08:42:56;19.20;99.90
12845;DHT22;6489;48.508;9.206;2023-02-15T08:46:18;19.30;99.90
12845;DHT22;6489;48.508;9.206;2023-02-15T08:49:41;19.10;99.90
12845;DHT22;6489;48.508;9.206;2023-02-15T08:53:03;19.00;99.90
12845;DHT22;6489;48.508;9.206;2023-02-15T08:56:27;18.70;99.90
12845;DHT22;6489;48.508;9.206;2023-02-15T08:59:49;18.60;99.90
12845;DHT22;6489;48.508;9.206;2023-02-15T09:03:11;18.40;99.90
12845;DHT22;6489;48.508;9.206;2023-02-15T09:06:35;18.30;99.90
12845;DHT22;6489;48.508;9.206;2023-02-15T09:09:57;18.30;99.90
12845;DHT22;6489;48.508;9.206;2023-02-15T09:13:25;18.20;99.90
12845;DHT22;6489;48.508;9.206;2023-02-15T09:16:58;18.20;99.90
12845;DHT22;6489;48.508;9.206;2023-02-15T09:20:19;18.20;99.90
12845;DHT22;6489;48.508;9.206;2023-02-15T09:23:45;18.10;99.90
12845;DHT22;6489;48.508;9.206;2023-02-15T09:39:08;18.10;99.90
12845;DHT22;6489;48.508;9.206;2023-02-15T09:46:19;18.00;99.90
12845;DHT22;6489;48.508;9.206;2023-02-15T09:49:50;18.10;99.90
12845;DHT22;6489;48.508;9.206;2023-02-15T09:53:29;18.00;99.90
12845;DHT22;6489;48.508;9.206;2023-02-15T09:57:00;18.10;99.90
12845;DHT22;6489;48.508;9.206;2023-02-15T10:00:30;18.10;99.90
12845;DHT22;6489;48.508;9.206;2023-02-15T10:04:12;18.10;99.90
12845;DHT22;6489;48.508;9.206;2023-02-15T10:11:14;18.20;99.90
12845;DHT22;6489;48.508;9.206;2023-02-15T10:15:09;18.10;99.90
12845;DHT22;6489;48.508;9.206;2023-02-15T10:18:48;18.20;99.90
12845;DHT22;6489;48.508;9.206;2023-02-15T10:22:20;18.30;99.90
12845;DHT22;6489;48.508;9.206;2023-02-15T10:25:48;18.30;99.90
12845;DHT22;6489;48.508;9.206;2023-02-15T10:29:21;18.30;99.90
12845;DHT22;6489;48.508;9.206;2023-02-15T10:32:57;18.30;99.90
12845;DHT22;6489;48.508;9.206;2023-02-15T10:36:31;18.40;99.90
12845;DHT22;6489;48.508;9.206;2023-02-15T10:40:02;18.40;99.90
12845;DHT22;6489;48.508;9.206;2023-02-15T10:43:49;18.50;99.90
12845;DHT22;6489;48.508;9.206;2023-02-15T10:47:36;18.50;99.90
12845;DHT22;6489;48.508;9.206;2023-02-15T10:51:02;18.60;99.90
12845;DHT22;6489;48.508;9.206;2023-02-15T10:54:30;18.60;99.90
12845;DHT22;6489;48.508;9.206;2023-02-15T10:57:59;18.60;99.90
12845;DHT22;6489;48.508;9.206;2023-02-15T11:01:30;18.70;99.90
12845;DHT22;6489;48.508;9.206;2023-02-15T11:05:03;18.70;99.90
12845;DHT22;6489;48.508;9.206;2023-02-15T11:08:34;18.80;99.90
12845;DHT22;6489;48.508;9.206;2023-02-15T11:11:57;18.80;99.90
12845;DHT22;6489;48.508;9.206;2023-02-15T11:15:25;18.80;99.90
12845;DHT22;6489;48.508;9.206;2023-02-15T11:18:51;18.80;99.90
12845;DHT22;6489;48.508;9.206;2023-02-15T11:22:14;18.80;99.90
12845;DHT22;6489;48.508;9.206;2023-02-15T11:25:37;18.80;99.90
12845;DHT22;6489;48.508;9.206;2023-02-15T11:29:05;18.80;99.90
12845;DHT22;6489;48.508;9.206;2023-02-15T11:32:31;18.80;99.90
12845;DHT22;6489;48.508;9.206;2023-02-15T11:35:57;18.80;99.90
12845;DHT22;6489;48.508;9.206;2023-02-15T11:39:21;18.80;99.90
12845;DHT22;6489;48.508;9.206;2023-02-15T11:42:47;18.90;99.90
12845;DHT22;6489;48.508;9.206;2023-02-15T11:46:12;18.90;99.90
12845;DHT22;6489;48.508;9.206;2023-02-15T11:49:35;18.90;99.90
12845;DHT22;6489;48.508;9.206;2023-02-15T11:53:00;19.00;99.90
12845;DHT22;6489;48.508;9.206;2023-02-15T11:56:24;19.00;99.90
12845;DHT22;6489;48.508;9.206;2023-02-15T11:59:51;19.00;99.90
12845;DHT22;6489;48.508;9.206;2023-02-15T12:03:18;19.00;99.90
12845;DHT22;6489;48.508;9.206;2023-02-15T12:06:46;19.10;99.90
12845;DHT22;6489;48.508;9.206;2023-02-15T12:10:18;19.00;99.90
12845;DHT22;6489;48.508;9.206;2023-02-15T12:13:54;19.10;99.90
12845;DHT22;6489;48.508;9.206;2023-02-15T12:17:20;19.20;99.90
12845;DHT22;6489;48.508;9.206;2023-02-15T12:20:43;19.10;99.90
12845;DHT22;6489;48.508;9.206;2023-02-15T12:24:16;19.20;99.90
12845;DHT22;6489;48.508;9.206;2023-02-15T12:27:43;19.20;99.90
12845;DHT22;6489;48.508;9.206;2023-02-15T12:31:10;19.20;99.90
12845;DHT22;6489;48.508;9.206;2023-02-15T12:34:42;19.20;99.90
12845;DHT22;6489;48.508;9.206;2023-02-15T12:38:19;19.30;99.90
12845;DHT22;6489;48.508;9.206;2023-02-15T12:41:45;19.30;99.90
12845;DHT22;6489;48.508;9.206;2023-02-15T12:45:21;19.30;99.90
12845;DHT22;6489;48.508;9.206;2023-02-15T12:48:44;19.40;99.90
12845;DHT22;6489;48.508;9.206;2023-02-15T12:52:23;19.40;99.90
12845;DHT22;6489;48.508;9.206;2023-02-15T12:55:54;19.40;99.90
12845;DHT22;6489;48.508;9.206;2023-02-15T12:59:17;19.40;99.90
12845;DHT22;6489;48.508;9.206;2023-02-15T13:02:42;19.50;99.90
12845;DHT22;6489;48.508;9.206;2023-02-15T13:06:05;19.50;99.90
12845;DHT22;6489;48.508;9.206;2023-02-15T13:09:37;19.50;99.90
12845;DHT22;6489;48.508;9.206;2023-02-15T13:13:00;19.50;99.90
12845;DHT22;6489;48.508;9.206;2023-02-15T13:16:28;19.60;99.90
12845;DHT22;6489;48.508;9.206;2023-02-15T13:19:52;19.60;99.90
12845;DHT22;6489;48.508;9.206;2023-02-15T13:23:24;19.70;99.90
12845;DHT22;6489;48.508;9.206;2023-02-15T13:26:49;20.20;99.90
12845;DHT22;6489;48.508;9.206;2023-02-15T13:30:22;19.80;99.90
12845;DHT22;6489;48.508;9.206;2023-02-15T13:33:48;19.80;99.90
12845;DHT22;6489;48.508;9.206;2023-02-15T13:37:16;19.90;99.90
12845;DHT22;6489;48.508;9.206;2023-02-15T13:40:43;19.80;99.90
12845;DHT22;6489;48.508;9.206;2023-02-15T13:44:18;19.90;99.90
12845;DHT22;6489;48.508;9.206;2023-02-15T13:47:47;19.90;99.90
12845;DHT22;6489;48.508;9.206;2023-02-15T13:51:16;20.00;99.90
12845;DHT22;6489;48.508;9.206;2023-02-15T13:54:58;20.00;99.90
12845;DHT22;6489;48.508;9.206;2023-02-15T13:58:53;20.00;99.90
12845;DHT22;6489;48.508;9.206;2023-02-15T14:02:47;20.00;99.90
12845;DHT22;6489;48.508;9.206;2023-02-15T14:06:37;20.00;99.90
12845;DHT22;6489;48.508;9.206;2023-02-15T14:10:21;20.10;99.90
12845;DHT22;6489;48.508;9.206;2023-02-15T14:14:02;20.10;99.90
12845;DHT22;6489;48.508;9.206;2023-02-15T14:17:38;20.10;99.90
12845;DHT22;6489;48.508;9.206;2023-02-15T14:21:07;20.10;99.90
12845;DHT22;6489;48.508;9.206;2023-02-15T14:24:38;20.10;99.90
12845;DHT22;6489;48.508;9.206;2023-02-15T14:28:08;20.10;99.90
12845;DHT22;6489;48.508;9.206;2023-02-15T14:34:59;19.90;99.90
12845;DHT22;6489;48.508;9.206;2023-02-15T14:38:31;19.80;99.90
12845;DHT22;6489;48.508;9.206;2023-02-15T14:41:57;19.80;99.90
12845;DHT22;6489;48.508;9.206;2023-02-15T14:45:27;19.80;99.90
12845;DHT22;6489;48.508;9.206;2023-02-15T14:48:52;19.80;99.90
12845;DHT22;6489;48.508;9.206;2023-02-15T14:52:16;19.80;99.90
12845;DHT22;6489;48.508;9.206;2023-02-15T14:55:38;19.70;99.90
12845;DHT22;6489;48.508;9.206;2023-02-15T14:59:18;19.70;99.90
12845;DHT22;6489;48.508;9.206;2023-02-15T15:02:45;19.60;99.90
12845;DHT22;6489;48.508;9.206;2023-02-15T15:06:25;19.60;99.90
12845;DHT22;6489;48.508;9.206;2023-02-15T15:09:59;19.60;99.90
12845;DHT22;6489;48.508;9.206;2023-02-15T15:13:52;19.60;99.90
12845;DHT22;6489;48.508;9.206;2023-02-15T15:17:59;19.60;99.90
12845;DHT22;6489;48.508;9.206;2023-02-15T15:21:52;19.50;99.90
12845;DHT22;6489;48.508;9.206;2023-02-15T15:25:41;19.50;99.90
12845;DHT22;6489;48.508;9.206;2023-02-15T15:29:03;19.50;99.90
12845;DHT22;6489;48.508;9.206;2023-02-15T15:32:27;19.50;99.90
12845;DHT22;6489;48.508;9.206;2023-02-15T15:36:08;19.40;99.90
12845;DHT22;6489;48.508;9.206;2023-02-15T15:47:58;19.40;99.90
12845;DHT22;6489;48.508;9.206;2023-02-15T15:51:28;19.30;99.90
12845;DHT22;6489;48.508;9.206;2023-02-15T15:54:54;19.30;99.90
12845;DHT22;6489;48.508;9.206;2023-02-15T15:58:18;19.40;99.90
12845;DHT22;6489;48.508;9.206;2023-02-15T16:01:43;19.30;99.90
12845;DHT22;6489;48.508;9.206;2023-02-15T16:05:09;19.30;99.90
12845;DHT22;6489;48.508;9.206;2023-02-15T16:08:34;19.30;99.90
12845;DHT22;6489;48.508;9.206;2023-02-15T16:11:57;19.00;99.90
12845;DHT22;6489;48.508;9.206;2023-02-15T16:15:23;18.60;99.90
12845;DHT22;6489;48.508;9.206;2023-02-15T16:18:45;18.30;99.90
12845;DHT22;6489;48.508;9.206;2023-02-15T16:22:13;18.00;99.90
12845;DHT22;6489;48.508;9.206;2023-02-15T16:25:46;17.90;99.90
12845;DHT22;6489;48.508;9.206;2023-02-15T16:29:14;17.80;99.90
12845;DHT22;6489;48.508;9.206;2023-02-15T16:32:36;17.90;99.90
12845;DHT22;6489;48.508;9.206;2023-02-15T16:35:59;18.20;99.90
12845;DHT22;6489;48.508;9.206;2023-02-15T16:39:23;18.40;99.90
12845;DHT22;6489;48.508;9.206;2023-02-15T16:42:46;18.40;99.90
12845;DHT22;6489;48.508;9.206;2023-02-15T16:46:11;18.10;99.90
12845;DHT22;6489;48.508;9.206;2023-02-15T16:49:36;18.00;99.90
12845;DHT22;6489;48.508;9.206;2023-02-15T16:53:00;18.00;99.90
12845;DHT22;6489;48.508;9.206;2023-02-15T16:56:24;18.20;99.90
12845;DHT22;6489;48.508;9.206;2023-02-15T16:59:53;18.20;99.90
12845;DHT22;6489;48.508;9.206;2023-02-15T17:03:22;18.30;99.90
12845;DHT22;6489;48.508;9.206;2023-02-15T17:06:58;18.30;99.90
12845;DHT22;6489;48.508;9.206;2023-02-15T17:10:27;18.40;99.90
12845;DHT22;6489;48.508;9.206;2023-02-15T17:17:49;18.50;99.90
12845;DHT22;6489;48.508;9.206;2023-02-15T17:21:12;18.60;99.90
12845;DHT22;6489;48.508;9.206;2023-02-15T17:24:38;18.60;99.90
12845;DHT22;6489;48.508;9.206;2023-02-15T17:28:00;18.60;99.90
12845;DHT22;6489;48.508;9.206;2023-02-15T17:31:25;18.60;99.90
12845;DHT22;6489;48.508;9.206;2023-02-15T17:35:07;18.60;99.90
12845;DHT22;6489;48.508;9.206;2023-02-15T17:38:31;18.60;99.90
12845;DHT22;6489;48.508;9.206;2023-02-15T17:41:53;18.60;99.90
12845;DHT22;6489;48.508;9.206;2023-02-15T17:45:16;18.60;99.90
12845;DHT22;6489;48.508;9.206;2023-02-15T17:48:39;18.60;99.90
12845;DHT22;6489;48.508;9.206;2023-02-15T17:52:04;18.70;99.90
12845;DHT22;6489;48.508;9.206;2023-02-15T17:55:27;18.70;99.90
12845;DHT22;6489;48.508;9.206;2023-02-15T17:58:58;18.70;99.90
12845;DHT22;6489;48.508;9.206;2023-02-15T18:02:20;18.70;99.90
12845;DHT22;6489;48.508;9.206;2023-02-15T18:05:59;18.70;99.90
12845;DHT22;6489;48.508;9.206;2023-02-15T18:09:40;18.80;99.90
12845;DHT22;6489;48.508;9.206;2023-02-15T18:13:19;18.70;99.90
12845;DHT22;6489;48.508;9.206;2023-02-15T18:16:42;18.80;99.90
12845;DHT22;6489;48.508;9.206;2023-02-15T18:20:10;18.80;99.90
12845;DHT22;6489;48.508;9.206;2023-02-15T18:23:38;18.80;99.90
12845;DHT22;6489;48.508;9.206;2023-02-15T18:27:03;18.80;99.90
12845;DHT22;6489;48.508;9.206;2023-02-15T18:30:25;18.80;99.90
12845;DHT22;6489;48.508;9.206;2023-02-15T18:33:49;18.80;99.90
12845;DHT22;6489;48.508;9.206;2023-02-15T18:37:16;18.80;99.90
12845;DHT22;6489;48.508;9.206;2023-02-15T18:40:38;18.80;99.90
12845;DHT22;6489;48.508;9.206;2023-02-15T18:44:02;18.80;99.90
12845;DHT22;6489;48.508;9.206;2023-02-15T18:47:24;18.80;99.90
12845;DHT22;6489;48.508;9.206;2023-02-15T18:50:46;18.70;99.90
12845;DHT22;6489;48.508;9.206;2023-02-15T18:54:16;18.80;99.90
12845;DHT22;6489;48.508;9.206;2023-02-15T18:57:39;18.70;99.90
12845;DHT22;6489;48.508;9.206;2023-02-15T19:01:05;18.70;99.90
12845;DHT22;6489;48.508;9.206;2023-02-15T19:04:27;18.70;99.90
12845;DHT22;6489;48.508;9.206;2023-02-15T19:07:49;18.70;99.90
12845;DHT22;6489;48.508;9.206;2023-02-15T19:11:14;18.70;99.90
12845;DHT22;6489;48.508;9.206;2023-02-15T19:14:41;18.70;99.90
12845;DHT22;6489;48.508;9.206;2023-02-15T19:18:05;18.70;99.90
12845;DHT22;6489;48.508;9.206;2023-02-15T19:21:29;18.70;99.90
12845;DHT22;6489;48.508;9.206;2023-02-15T19:24:51;18.70;99.90
12845;DHT22;6489;48.508;9.206;2023-02-15T19:28:16;18.70;99.90
12845;DHT22;6489;48.508;9.206;2023-02-15T19:31:38;18.50;99.90
12845;DHT22;6489;48.508;9.206;2023-02-15T19:35:01;18.70;99.90
12845;DHT22;6489;48.508;9.206;2023-02-15T19:38:25;18.70;99.90
12845;DHT22;6489;48.508;9.206;2023-02-15T19:41:49;18.60;99.90
12845;DHT22;6489;48.508;9.206;2023-02-15T19:45:13;18.70;99.90
12845;DHT22;6489;48.508;9.206;2023-02-15T19:48:35;18.60;99.90
12845;DHT22;6489;48.508;9.206;2023-02-15T19:51:58;18.70;99.90
12845;DHT22;6489;48.508;9.206;2023-02-15T19:55:23;18.60;99.90
12845;DHT22;6489;48.508;9.206;2023-02-15T19:58:45;18.60;99.90
12845;DHT22;6489;48.508;9.206;2023-02-15T20:02:11;18.60;99.90
12845;DHT22;6489;48.508;9.206;2023-02-15T20:05:34;18.60;99.90
12845;DHT22;6489;48.508;9.206;2023-02-15T20:08:59;18.60;99.90
12845;DHT22;6489;48.508;9.206;2023-02-15T20:15:44;18.60;99.90
12845;DHT22;6489;48.508;9.206;2023-02-15T20:19:06;18.60;99.90
12845;DHT22;6489;48.508;9.206;2023-02-15T20:22:28;18.60;99.90
12845;DHT22;6489;48.508;9.206;2023-02-15T20:25:52;18.60;99.90
12845;DHT22;6489;48.508;9.206;2023-02-15T20:29:14;18.60;99.90
12845;DHT22;6489;48.508;9.206;2023-02-15T20:32:37;18.60;99.90
12845;DHT22;6489;48.508;9.206;2023-02-15T20:35:59;18.60;99.90
12845;DHT22;6489;48.508;9.206;2023-02-15T20:39:21;18.60;99.90
12845;DHT22;6489;48.508;9.206;2023-02-15T20:42:45;18.60;99.90
12845;DHT22;6489;48.508;9.206;2023-02-15T20:46:07;18.60;99.90
12845;DHT22;6489;48.508;9.206;2023-02-15T20:49:29;18.60;99.90
12845;DHT22;6489;48.508;9.206;2023-02-15T20:52:52;18.60;99.90
12845;DHT22;6489;48.508;9.206;2023-02-15T20:56:18;18.60;99.90
12845;DHT22;6489;48.508;9.206;2023-02-15T20:59:42;18.50;99.90
12845;DHT22;6489;48.508;9.206;2023-02-15T21:03:10;18.60;99.90
12845;DHT22;6489;48.508;9.206;2023-02-15T21:06:33;18.50;99.90
12845;DHT22;6489;48.508;9.206;2023-02-15T21:09:55;18.50;99.90
12845;DHT22;6489;48.508;9.206;2023-02-15T21:13:21;18.50;99.90
12845;DHT22;6489;48.508;9.206;2023-02-15T21:16:46;18.50;99.90
12845;DHT22;6489;48.508;9.206;2023-02-15T21:20:11;18.50;99.90
12845;DHT22;6489;48.508;9.206;2023-02-15T21:23:35;18.50;99.90
12845;DHT22;6489;48.508;9.206;2023-02-15T21:27:01;18.50;99.90
12845;DHT22;6489;48.508;9.206;2023-02-15T21:30:24;18.50;99.90
12845;DHT22;6489;48.508;9.206;2023-02-15T21:33:47;18.50;99.90
12845;DHT22;6489;48.508;9.206;2023-02-15T21:37:24;18.50;99.90
12845;DHT22;6489;48.508;9.206;2023-02-15T21:40:47;18.50;99.90
12845;DHT22;6489;48.508;9.206;2023-02-15T21:44:17;18.50;99.90
12845;DHT22;6489;48.508;9.206;2023-02-15T21:47:56;18.50;99.90
12845;DHT22;6489;48.508;9.206;2023-02-15T21:51:20;18.50;99.90
12845;DHT22;6489;48.508;9.206;2023-02-15T21:54:59;18.50;99.90
12845;DHT22;6489;48.508;9.206;2023-02-15T21:58:23;18.50;99.90
12845;DHT22;6489;48.508;9.206;2023-02-15T22:01:48;18.50;99.90
12845;DHT22;6489;48.508;9.206;2023-02-15T22:05:13;18.40;99.90
12845;DHT22;6489;48.508;9.206;2023-02-15T22:08:38;18.40;99.90
12845;DHT22;6489;48.508;9.206;2023-02-15T22:12:00;18.50;99.90
12845;DHT22;6489;48.508;9.206;2023-02-15T22:15:24;18.40;99.90
12845;DHT22;6489;48.508;9.206;2023-02-15T22:18:47;18.40;99.90
12845;DHT22;6489;48.508;9.206;2023-02-15T22:22:09;18.50;99.90
12845;DHT22;6489;48.508;9.206;2023-02-15T22:25:32;18.40;99.90
12845;DHT22;6489;48.508;9.206;2023-02-15T22:28:55;18.50;99.90
12845;DHT22;6489;48.508;9.206;2023-02-15T22:32:19;18.50;99.90
12845;DHT22;6489;48.508;9.206;2023-02-15T22:35:41;18.40;99.90
12845;DHT22;6489;48.508;9.206;2023-02-15T22:39:03;18.40;99.90
12845;DHT22;6489;48.508;9.206;2023-02-15T22:42:26;18.40;99.90
12845;DHT22;6489;48.508;9.206;2023-02-15T22:45:49;18.40;99.90
12845;DHT22;6489;48.508;9.206;2023-02-15T22:49:11;18.40;99.90
12845;DHT22;6489;48.508;9.206;2023-02-15T22:55:56;18.40;99.90
12845;DHT22;6489;48.508;9.206;2023-02-15T22:59:23;18.40;99.90
12845;DHT22;6489;48.508;9.206;2023-02-15T23:02:47;18.40;99.90
12845;DHT22;6489;48.508;9.206;2023-02-15T23:06:10;18.40;99.90
12845;DHT22;6489;48.508;9.206;2023-02-15T23:09:32;18.40;99.90